Birken, Canada
Current Conditions -  °F | °C
As of 10:00 AM on Monday 26 Jan 2015 (Local Time) from CWLY Reporting Station
Overcast Overcast  
Wind Chill: 39°   Ceiling: 1800
Heat Index: 39°   Visibility: 9mi
Dew Point: 36°   Wind: 3mph
Humidity: 87%   Direction: 170°S
Pressure: 29.97"   Gusts: NA
Location:  50.48°N, 122.61°W
Report Text: CWLY 261800Z AUTO 17003KT 9SM OVC018 04/02 A2997 RMK SLP157
Loading
Personal Weather Stations






























Interactive Weather Map New forecast layout! Learn more

10-Day Weather Forecast

Advertisements
Track Severe Weather on mobile